Time;durP1;ratioP1;P1;durP2;ratioP2;P2;SDS_P1;SDS_P2;PMS_P1;PMS_P2;Temp;Humidity;BMP_temperature;BMP_pressure;BME280_temperature;BME280_humidity;BME280_pressure;Samples;Min_cycle;Max_cycle;Signal;HPM_P1;HPM_P2
2021/08/10 00:02:09;;;;;;;2.20;1.40;;;23.40;50.70;;;;;;5073366;28;20037;-48
2021/08/10 00:04:35;;;;;;;1.40;0.90;;;23.40;50.70;;;;;;5073633;28;20111;-49
2021/08/10 00:07:00;;;;;;;4.72;2.22;;;23.40;50.70;;;;;;5072924;28;20056;-48
2021/08/10 00:09:26;;;;;;;3.17;1.45;;;23.50;50.80;;;;;;5065008;28;20593;-49
2021/08/10 00:11:51;;;;;;;3.25;1.10;;;23.50;50.80;;;;;;5052794;28;20037;-51
2021/08/10 00:14:17;;;;;;;2.50;1.25;;;23.50;50.80;;;;;;5051906;28;20074;-49
2021/08/10 00:16:43;;;;;;;3.60;1.35;;;23.40;50.80;;;;;;5053053;28;20068;-50
2021/08/10 00:19:09;;;;;;;1.67;0.98;;;23.40;50.90;;;;;;5066169;28;20036;-48
2021/08/10 00:21:35;;;;;;;2.42;1.80;;;23.40;50.90;;;;;;5072689;28;20469;-50
2021/08/10 00:24:00;;;;;;;2.60;0.90;;;23.40;50.90;;;;;;5072772;28;20039;-50
2021/08/10 00:26:26;;;;;;;3.00;1.35;;;23.40;51.00;;;;;;5071692;28;20469;-49
2021/08/10 00:28:52;;;;;;;1.52;0.90;;;23.40;50.90;;;;;;5072685;28;20107;-50
2021/08/10 00:31:18;;;;;;;2.47;1.27;;;23.40;50.90;;;;;;5071848;28;20143;-48
2021/08/10 00:33:43;;;;;;;1.90;1.00;;;23.50;51.00;;;;;;5072363;28;20039;-48
2021/08/10 00:36:12;;;;;;;1.38;1.10;;;23.50;51.00;;;;;;5071900;28;20029;-50
2021/08/10 00:38:38;;;;;;;2.28;1.00;;;23.50;50.90;;;;;;5072540;28;20114;-49
2021/08/10 00:41:04;;;;;;;4.00;1.40;;;23.50;51.00;;;;;;5072627;28;20052;-48
2021/08/10 00:43:39;;;;;;;2.60;1.13;;;23.50;51.00;;;;;;5071190;28;20028;-50
2021/08/10 00:46:07;;;;;;;1.35;0.95;;;23.50;51.00;;;;;;5072478;28;20461;-53
2021/08/10 00:48:33;;;;;;;1.60;1.08;;;23.50;51.00;;;;;;5071599;28;20024;-48
2021/08/10 00:50:59;;;;;;;2.85;1.27;;;23.50;51.10;;;;;;5072460;28;20457;-50
2021/08/10 00:53:26;;;;;;;1.95;1.20;;;23.50;51.20;;;;;;5071358;28;20028;-49
2021/08/10 00:55:52;;;;;;;2.40;1.48;;;23.40;51.20;;;;;;5072060;28;20032;-49
2021/08/10 00:58:18;;;;;;;2.00;1.05;;;23.50;51.30;;;;;;5068974;28;20128;-48
2021/08/10 01:00:44;;;;;;;1.95;1.25;;;23.50;51.30;;;;;;5051837;28;20128;-48
2021/08/10 01:03:11;;;;;;;5.57;1.35;;;23.50;51.30;;;;;;5051750;28;20115;-52
2021/08/10 01:05:39;;;;;;;2.35;1.02;;;23.50;51.30;;;;;;5052000;28;20029;-48
2021/08/10 01:08:13;;;;;;;1.80;1.10;;;23.50;51.30;;;;;;5051833;28;20378;-48
2021/08/10 01:11:05;;;;;;;1.60;1.02;;;23.40;51.30;;;;;;5052115;28;20123;-48
2021/08/10 01:13:41;;;;;;;2.75;1.20;;;23.40;51.20;;;;;;5051317;28;20055;-49
2021/08/10 01:16:40;;;;;;;2.85;1.30;;;23.40;51.40;;;;;;5050370;28;20029;-55
2021/08/10 01:19:44;;;;;;;2.00;1.17;;;23.40;51.60;;;;;;5064771;28;20100;-55
2021/08/10 01:22:14;;;;;;;2.22;1.10;;;23.30;51.60;;;;;;5059681;28;20393;-55
2021/08/10 01:24:50;;;;;;;2.50;1.20;;;23.30;51.70;;;;;;5072379;28;20377;-48
2021/08/10 01:27:35;;;;;;;2.92;1.20;;;23.30;51.70;;;;;;5070952;28;20461;-50
2021/08/10 01:30:12;;;;;;;2.58;1.00;;;23.30;51.70;;;;;;5071583;28;20029;-48
2021/08/10 01:32:42;;;;;;;3.35;1.20;;;23.30;51.70;;;;;;5071842;28;20071;-48
2021/08/10 01:35:08;;;;;;;1.55;1.00;;;23.40;51.70;;;;;;5071680;28;20029;-55
2021/08/10 01:37:35;;;;;;;2.00;0.95;;;23.40;51.60;;;;;;5071218;28;20029;-48
2021/08/10 01:40:08;;;;;;;2.10;1.20;;;23.40;51.60;;;;;;5071861;28;20035;-50
2021/08/10 01:42:36;;;;;;;2.25;1.35;;;23.40;51.60;;;;;;5071200;28;20170;-50
2021/08/10 01:45:03;;;;;;;2.22;1.10;;;23.40;51.60;;;;;;5071540;28;20105;-48
2021/08/10 01:47:30;;;;;;;2.38;1.20;;;23.50;51.60;;;;;;5070273;28;20028;-55
2021/08/10 01:50:01;;;;;;;1.73;1.30;;;23.40;51.60;;;;;;5071742;28;20355;-49
2021/08/10 01:52:27;;;;;;;3.30;1.30;;;23.40;51.60;;;;;;5070618;28;20117;-50
2021/08/10 01:54:54;;;;;;;1.45;1.10;;;23.40;51.60;;;;;;5071392;28;20033;-48
2021/08/10 01:57:20;;;;;;;2.38;1.08;;;23.50;51.70;;;;;;5070440;28;20024;-48
2021/08/10 01:59:50;;;;;;;1.80;1.00;;;23.40;51.70;;;;;;5071516;28;20048;-49
2021/08/10 02:02:16;;;;;;;2.80;1.02;;;23.40;51.70;;;;;;5070452;28;20033;-49
2021/08/10 02:04:47;;;;;;;1.75;1.17;;;23.40;51.70;;;;;;5071419;28;20508;-49
2021/08/10 02:07:13;;;;;;;2.15;1.25;;;23.40;51.70;;;;;;5070668;28;20382;-50
2021/08/10 02:09:40;;;;;;;1.67;1.20;;;23.50;51.80;;;;;;5064031;28;20033;-51
2021/08/10 02:12:08;;;;;;;2.00;1.27;;;23.40;51.80;;;;;;5055390;28;20378;-51
2021/08/10 02:14:35;;;;;;;1.60;1.10;;;23.40;51.90;;;;;;5054485;28;20029;-48
2021/08/10 02:17:03;;;;;;;1.63;1.10;;;23.40;51.90;;;;;;5055247;28;20107;-49
2021/08/10 02:19:30;;;;;;;1.00;0.90;;;23.40;51.80;;;;;;5070819;28;20056;-50
2021/08/10 02:22:08;;;;;;;1.85;1.08;;;23.40;51.80;;;;;;5074918;28;20035;-51
2021/08/10 02:24:37;;;;;;;2.47;1.00;;;23.40;51.90;;;;;;5074328;28;20103;-48
2021/08/10 02:27:06;;;;;;;1.92;1.17;;;23.50;51.90;;;;;;5074970;28;20535;-49
2021/08/10 02:29:38;;;;;;;3.33;1.10;;;23.50;51.90;;;;;;5073927;28;20027;-48
2021/08/10 02:32:05;;;;;;;1.67;1.05;;;23.40;51.90;;;;;;5074879;28;20085;-48
2021/08/10 02:34:31;;;;;;;1.42;1.05;;;23.40;51.90;;;;;;5074087;28;20615;-49
2021/08/10 02:36:59;;;;;;;1.33;0.90;;;23.50;52.60;;;;;;5075157;28;20031;-49
2021/08/10 02:39:25;;;;;;;1.63;1.20;;;23.50;51.90;;;;;;5074096;28;20143;-50
2021/08/10 02:41:54;;;;;;;1.30;0.95;;;23.40;51.90;;;;;;5075055;28;20054;-49
2021/08/10 02:44:20;;;;;;;1.15;0.90;;;23.40;52.10;;;;;;5073843;28;20362;-48
2021/08/10 02:46:47;;;;;;;2.38;1.17;;;23.40;52.10;;;;;;5074491;28;20381;-48
2021/08/10 02:49:12;;;;;;;1.60;1.00;;;23.40;52.10;;;;;;5073373;28;20043;-54
2021/08/10 02:51:38;;;;;;;3.28;1.40;;;23.40;52.20;;;;;;5064095;28;20025;-51
2021/08/10 02:54:05;;;;;;;5.30;1.50;;;23.30;52.40;;;;;;5054279;28;20052;-48
2021/08/10 02:56:44;;;;;;;1.65;1.20;;;23.30;52.50;;;;;;5053792;28;20021;-49
2021/08/10 02:59:32;;;;;;;1.48;1.00;;;23.30;52.50;;;;;;5054693;28;20029;-54
2021/08/10 03:02:06;;;;;;;1.83;1.25;;;23.30;52.50;;;;;;5034377;28;20039;-48
2021/08/10 03:04:35;;;;;;;2.90;1.20;;;23.30;52.60;;;;;;5033803;28;20017;-49
2021/08/10 03:07:02;;;;;;;1.80;1.20;;;23.20;52.50;;;;;;5034504;28;20026;-52
2021/08/10 03:09:28;;;;;;;2.17;1.10;;;23.30;52.50;;;;;;5039134;28;20083;-52
2021/08/10 03:11:57;;;;;;;1.77;1.08;;;23.30;52.50;;;;;;5053984;28;20493;-50
2021/08/10 03:14:24;;;;;;;4.57;1.80;;;23.30;52.50;;;;;;5053108;28;20032;-49
2021/08/10 03:16:52;;;;;;;3.15;1.27;;;23.40;52.60;;;;;;5053928;28;20060;-51
2021/08/10 03:19:20;;;;;;;2.92;1.20;;;23.40;52.50;;;;;;5067825;28;20390;-51
2021/08/10 03:21:46;;;;;;;1.40;1.08;;;23.40;52.50;;;;;;5073007;28;20362;-48
2021/08/10 03:24:14;;;;;;;1.40;1.00;;;23.40;52.50;;;;;;5073788;28;20028;-55
2021/08/10 03:26:41;;;;;;;2.03;0.90;;;23.40;52.50;;;;;;5073916;28;20086;-52
2021/08/10 03:29:08;;;;;;;1.85;1.10;;;23.40;52.50;;;;;;5074080;28;20099;-51
2021/08/10 03:31:38;;;;;;;2.22;1.05;;;23.40;52.50;;;;;;5072864;28;20032;-52
2021/08/10 03:34:04;;;;;;;1.58;1.10;;;23.40;52.50;;;;;;5073611;28;20081;-49
2021/08/10 03:36:30;;;;;;;2.55;1.23;;;23.40;52.50;;;;;;5073065;28;20036;-48
2021/08/10 03:38:57;;;;;;;2.20;1.10;;;23.40;52.50;;;;;;5073832;28;20029;-51
2021/08/10 03:41:24;;;;;;;1.52;1.00;;;23.40;52.50;;;;;;5072749;28;20111;-50
2021/08/10 03:43:50;;;;;;;2.30;1.20;;;23.40;52.50;;;;;;5073769;28;20047;-50
2021/08/10 03:46:16;;;;;;;3.17;1.42;;;23.40;52.50;;;;;;5072578;28;20025;-51
2021/08/10 03:48:43;;;;;;;2.45;1.20;;;23.30;52.60;;;;;;5072875;28;20020;-50
2021/08/10 03:51:11;;;;;;;3.22;1.20;;;23.40;52.60;;;;;;5073422;28;20115;-49
2021/08/10 03:53:38;;;;;;;1.63;1.02;;;23.40;52.60;;;;;;5072485;28;20032;-49
2021/08/10 03:56:04;;;;;;;2.78;0.98;;;23.30;52.50;;;;;;5073105;28;20031;-50
2021/08/10 03:58:33;;;;;;;2.83;1.52;;;23.40;52.60;;;;;;5072666;28;20039;-52
2021/08/10 04:01:01;;;;;;;2.97;1.10;;;23.40;52.60;;;;;;5073243;28;20080;-53
2021/08/10 04:03:30;;;;;;;2.10;1.02;;;23.30;52.60;;;;;;5072012;28;20036;-50
2021/08/10 04:05:58;;;;;;;2.25;1.30;;;23.30;52.60;;;;;;5073495;28;20028;-52
2021/08/10 04:08:24;;;;;;;2.63;1.27;;;23.40;52.60;;;;;;5072303;28;20063;-48
2021/08/10 04:10:50;;;;;;;2.70;1.27;;;23.40;52.60;;;;;;5054456;28;20115;-49
2021/08/10 04:13:16;;;;;;;1.95;1.10;;;23.40;52.60;;;;;;5052639;28;20111;-56
2021/08/10 04:15:49;;;;;;;2.65;1.23;;;23.40;52.70;;;;;;5053196;28;20108;-49
2021/08/10 04:18:18;;;;;;;1.45;1.10;;;23.40;52.70;;;;;;5058002;28;20021;-56
2021/08/10 04:20:52;;;;;;;1.95;1.10;;;23.40;52.70;;;;;;5051392;28;20044;-51
2021/08/10 04:23:18;;;;;;;5.32;1.02;;;23.30;52.70;;;;;;5048273;28;20035;-52
2021/08/10 04:25:45;;;;;;;2.53;1.27;;;23.40;52.70;;;;;;5051479;28;20021;-52
2021/08/10 04:28:11;;;;;;;2.03;1.05;;;23.40;52.70;;;;;;5053631;28;20037;-52
2021/08/10 04:30:38;;;;;;;3.65;1.13;;;23.30;52.60;;;;;;5050714;28;20040;-47
2021/08/10 04:33:05;;;;;;;3.05;1.20;;;23.30;52.80;;;;;;5051138;28;20029;-51
2021/08/10 04:35:30;;;;;;;1.40;1.17;;;23.30;53.00;;;;;;5050640;28;20029;-49
2021/08/10 04:37:56;;;;;;;2.17;1.13;;;23.30;53.00;;;;;;5051348;28;20032;-50
2021/08/10 04:40:22;;;;;;;2.72;1.25;;;23.30;53.00;;;;;;5050114;28;20387;-49
2021/08/10 04:42:47;;;;;;;2.13;1.30;;;23.30;53.00;;;;;;5051380;28;20029;-50
2021/08/10 04:45:13;;;;;;;2.83;1.30;;;23.30;53.00;;;;;;5050539;28;20033;-55
2021/08/10 04:47:39;;;;;;;1.50;1.20;;;23.30;53.10;;;;;;5050713;28;20029;-51
2021/08/10 04:50:05;;;;;;;1.58;1.08;;;23.30;53.00;;;;;;5052190;28;20027;-51
2021/08/10 04:52:31;;;;;;;2.67;1.33;;;23.30;53.00;;;;;;5048761;28;20032;-48
2021/08/10 04:54:57;;;;;;;2.65;1.30;;;23.30;53.10;;;;;;5051023;28;20488;-49
2021/08/10 04:57:24;;;;;;;2.58;1.30;;;23.30;53.10;;;;;;5049819;28;20537;-54
2021/08/10 04:59:50;;;;;;;1.42;0.95;;;23.30;53.00;;;;;;5052913;28;20067;-48
2021/08/10 05:02:19;;;;;;;1.65;1.10;;;23.30;53.10;;;;;;5049142;28;20040;-57
2021/08/10 05:04:45;;;;;;;1.95;1.10;;;23.30;53.10;;;;;;5050972;28;20029;-52
2021/08/10 05:07:12;;;;;;;2.58;1.38;;;23.30;53.10;;;;;;5050349;28;20477;-50
2021/08/10 05:09:38;;;;;;;3.45;1.15;;;23.30;53.30;;;;;;5049946;28;20485;-50
2021/08/10 05:12:05;;;;;;;1.30;1.05;;;23.30;53.30;;;;;;5050400;28;20021;-49
2021/08/10 05:14:31;;;;;;;4.25;1.50;;;23.30;53.20;;;;;;5049872;28;20029;-52
2021/08/10 05:16:57;;;;;;;1.98;1.15;;;23.30;53.10;;;;;;5050637;28;20021;-52
2021/08/10 05:19:23;;;;;;;2.53;1.17;;;23.30;53.10;;;;;;5050630;28;20107;-51
2021/08/10 05:21:48;;;;;;;1.80;1.20;;;23.30;53.10;;;;;;5050384;28;20104;-54
2021/08/10 05:24:14;;;;;;;3.90;1.27;;;23.30;53.10;;;;;;5050076;28;20032;-56
2021/08/10 05:26:39;;;;;;;2.13;1.20;;;23.30;53.10;;;;;;5052439;28;20072;-48
2021/08/10 05:29:05;;;;;;;2.05;1.20;;;23.40;53.10;;;;;;5050575;28;20048;-47
2021/08/10 05:31:31;;;;;;;3.03;1.00;;;23.30;53.10;;;;;;5050878;28;20079;-46
2021/08/10 05:33:56;;;;;;;1.55;0.98;;;23.40;53.20;;;;;;5054401;28;20458;-47
2021/08/10 05:36:22;;;;;;;1.98;1.05;;;23.40;53.10;;;;;;5070330;28;20127;-52
2021/08/10 05:38:50;;;;;;;2.28;1.20;;;23.40;53.10;;;;;;5071986;28;20021;-49
2021/08/10 05:41:19;;;;;;;1.83;1.30;;;23.40;53.10;;;;;;5071139;28;20099;-55
2021/08/10 05:43:45;;;;;;;2.67;1.33;;;23.40;53.00;;;;;;5071581;28;20032;-48
2021/08/10 05:46:11;;;;;;;3.47;1.15;;;23.40;53.10;;;;;;5075655;28;20028;-47
2021/08/10 05:48:36;;;;;;;5.60;1.13;;;23.50;53.80;;;;;;5074628;28;20020;-46
2021/08/10 05:51:04;;;;;;;4.00;2.00;;;23.50;53.30;;;;;;5075452;28;20044;-47
2021/08/10 05:53:31;;;;;;;7.25;1.48;;;23.50;53.10;;;;;;5069208;28;20123;-46
2021/08/10 05:55:57;;;;;;;3.17;1.45;;;23.60;53.30;;;;;;5055691;28;20179;-46
2021/08/10 05:58:23;;;;;;;5.70;1.40;;;23.60;53.60;;;;;;5062244;28;20036;-48
2021/08/10 06:00:48;;;;;;;4.07;1.27;;;23.60;53.80;;;;;;5075611;28;20062;-47
2021/08/10 06:03:14;;;;;;;7.38;1.77;;;23.60;54.20;;;;;;5075233;28;20032;-54
2021/08/10 06:05:40;;;;;;;4.20;1.52;;;23.60;54.60;;;;;;5074735;28;20029;-48
2021/08/10 06:08:06;;;;;;;4.72;1.77;;;23.60;55.00;;;;;;5075350;28;20031;-48
2021/08/10 06:10:32;;;;;;;4.30;1.77;;;23.60;54.50;;;;;;5058582;28;20090;-49
2021/08/10 06:12:57;;;;;;;6.75;2.17;;;23.60;54.80;;;;;;5055341;28;20033;-47
2021/08/10 06:15:23;;;;;;;7.00;1.77;;;23.60;55.30;;;;;;5054673;28;20033;-47
2021/08/10 06:17:49;;;;;;;6.82;1.80;;;23.60;55.40;;;;;;5057950;28;20039;-45
2021/08/10 06:20:15;;;;;;;8.32;1.90;;;23.60;55.10;;;;;;5075528;28;20059;-46
2021/08/10 06:22:41;;;;;;;3.53;1.70;;;23.50;55.00;;;;;;5074429;28;20066;-46
2021/08/10 06:25:07;;;;;;;8.48;1.98;;;23.50;54.80;;;;;;5075377;28;20432;-46
2021/08/10 06:27:33;;;;;;;3.65;1.80;;;23.50;54.90;;;;;;5072620;28;20485;-46
2021/08/10 06:29:59;;;;;;;8.77;1.95;;;23.50;55.00;;;;;;5052148;28;20040;-47
2021/08/10 06:32:25;;;;;;;7.80;1.98;;;23.50;55.30;;;;;;5053936;28;20033;-46
2021/08/10 06:34:51;;;;;;;7.82;2.13;;;23.50;55.20;;;;;;5054668;28;20151;-46
2021/08/10 06:37:16;;;;;;;6.85;1.77;;;23.50;55.40;;;;;;5054494;28;20024;-54
2021/08/10 06:39:42;;;;;;;4.97;1.83;;;23.50;55.50;;;;;;5054522;28;20059;-49
2021/08/10 06:42:08;;;;;;;5.55;2.08;;;23.50;55.30;;;;;;5052595;28;20422;-57
2021/08/10 06:44:34;;;;;;;6.57;1.65;;;23.50;55.00;;;;;;5045484;28;20099;-49
2021/08/10 06:47:00;;;;;;;3.10;1.90;;;23.50;54.90;;;;;;5054391;28;20097;-50
2021/08/10 06:49:27;;;;;;;5.38;2.05;;;23.50;54.60;;;;;;5055002;28;20056;-49
2021/08/10 06:51:53;;;;;;;3.92;1.80;;;23.40;55.00;;;;;;5055120;28;20035;-48
2021/08/10 06:54:18;;;;;;;3.55;1.90;;;23.40;54.50;;;;;;5054177;28;20401;-51
2021/08/10 06:56:44;;;;;;;5.65;1.80;;;23.40;54.30;;;;;;5055032;28;20021;-48
2021/08/10 06:59:10;;;;;;;5.50;1.80;;;23.50;54.50;;;;;;5054731;28;20498;-47
2021/08/10 07:01:35;;;;;;;6.35;1.95;;;23.50;54.40;;;;;;5053804;28;20474;-48
2021/08/10 07:04:02;;;;;;;3.70;2.05;;;23.40;54.40;;;;;;5053972;28;20053;-48
2021/08/10 07:06:30;;;;;;;6.10;1.85;;;23.50;54.50;;;;;;5053093;28;20437;-48
2021/08/10 07:08:59;;;;;;;4.93;2.30;;;23.40;54.40;;;;;;5052153;28;20086;-48
2021/08/10 07:11:25;;;;;;;5.65;1.92;;;23.50;54.60;;;;;;5052688;28;20017;-48
2021/08/10 07:13:50;;;;;;;4.28;1.80;;;23.50;54.60;;;;;;5055697;28;20048;-48
2021/08/10 07:16:16;;;;;;;5.30;1.90;;;23.50;54.90;;;;;;5047705;28;20043;-50
2021/08/10 07:18:42;;;;;;;5.07;2.22;;;23.40;55.10;;;;;;5054261;28;20072;-51
2021/08/10 07:21:07;;;;;;;5.80;1.90;;;23.40;55.00;;;;;;5054243;28;20025;-48
2021/08/10 07:23:33;;;;;;;6.90;2.38;;;23.40;55.00;;;;;;5052985;28;20029;-48
2021/08/10 07:25:59;;;;;;;3.53;2.00;;;23.50;55.10;;;;;;5054069;28;20497;-47
2021/08/10 07:28:24;;;;;;;4.93;2.10;;;23.40;55.00;;;;;;5050060;28;20432;-49
2021/08/10 07:30:50;;;;;;;4.57;2.08;;;23.50;55.00;;;;;;5052982;28;20440;-48
2021/08/10 07:33:16;;;;;;;5.28;2.40;;;23.50;55.00;;;;;;5053691;28;20029;-48
2021/08/10 07:35:41;;;;;;;3.92;1.95;;;23.50;55.10;;;;;;5053137;28;20241;-48
2021/08/10 07:38:07;;;;;;;3.83;2.33;;;23.50;55.00;;;;;;5053481;28;20028;-48
2021/08/10 07:40:33;;;;;;;4.55;1.90;;;23.50;55.00;;;;;;5053122;28;20029;-48
2021/08/10 07:42:59;;;;;;;3.72;2.00;;;23.50;55.10;;;;;;5060834;28;20020;-48
2021/08/10 07:45:25;;;;;;;2.95;1.70;;;23.50;55.30;;;;;;5073095;28;20028;-49
2021/08/10 07:47:50;;;;;;;4.57;2.13;;;23.50;55.30;;;;;;5073935;28;20029;-53
2021/08/10 07:50:19;;;;;;;6.20;1.95;;;23.50;55.60;;;;;;5073332;28;20036;-49
2021/08/10 07:52:47;;;;;;;3.42;1.60;;;23.50;55.60;;;;;;5072781;28;20473;-48
2021/08/10 07:55:13;;;;;;;4.15;2.10;;;23.50;55.70;;;;;;5073230;28;20031;-49
2021/08/10 07:57:41;;;;;;;3.40;1.48;;;23.50;55.90;;;;;;5072450;28;20632;-50
2021/08/10 08:00:07;;;;;;;4.38;2.00;;;23.50;55.80;;;;;;5073031;28;20068;-53
2021/08/10 08:02:32;;;;;;;7.32;1.70;;;23.40;55.90;;;;;;5072320;28;20037;-50
2021/08/10 08:04:58;;;;;;;5.82;2.30;;;23.40;56.00;;;;;;5073247;28;20074;-51
2021/08/10 08:07:24;;;;;;;6.43;2.03;;;23.40;56.10;;;;;;5071534;28;20075;-52
2021/08/10 08:09:49;;;;;;;4.43;1.60;;;23.40;56.10;;;;;;5062864;28;20025;-52
2021/08/10 08:12:15;;;;;;;3.75;1.58;;;23.40;56.10;;;;;;5053884;28;20504;-51
2021/08/10 08:14:43;;;;;;;2.72;1.90;;;23.40;56.10;;;;;;5072240;28;20036;-49
2021/08/10 08:17:09;;;;;;;3.13;1.73;;;23.40;56.10;;;;;;5072999;28;20027;-52
2021/08/10 08:19:35;;;;;;;2.58;1.77;;;23.40;56.30;;;;;;5072322;28;20032;-50
2021/08/10 08:22:00;;;;;;;3.53;1.98;;;23.40;56.20;;;;;;5072960;28;20028;-49
2021/08/10 08:24:26;;;;;;;8.43;1.73;;;23.40;56.30;;;;;;5071954;28;20081;-49
2021/08/10 08:26:52;;;;;;;2.90;2.03;;;23.40;56.90;;;;;;5072921;28;20071;-48
2021/08/10 08:29:17;;;;;;;3.13;1.77;;;23.40;56.30;;;;;;5072057;28;20424;-51
2021/08/10 08:31:43;;;;;;;6.15;1.73;;;23.40;56.30;;;;;;5071999;28;20037;-52
2021/08/10 08:34:08;;;;;;;7.70;2.10;;;23.40;56.20;;;;;;5072622;28;20037;-51
2021/08/10 08:36:34;;;;;;;5.07;1.73;;;23.40;56.20;;;;;;5071937;28;20032;-49
2021/08/10 08:39:00;;;;;;;3.03;1.70;;;23.40;56.90;;;;;;5072458;28;20021;-48
2021/08/10 08:41:26;;;;;;;3.75;1.60;;;23.40;56.10;;;;;;5071477;28;20035;-48
2021/08/10 08:43:51;;;;;;;2.53;1.50;;;23.40;56.20;;;;;;5071678;28;20028;-47
2021/08/10 08:46:20;;;;;;;3.10;1.30;;;23.40;56.20;;;;;;5072455;28;20064;-47
2021/08/10 08:48:46;;;;;;;4.13;1.65;;;23.40;56.20;;;;;;5071580;28;20458;-47
2021/08/10 08:51:17;;;;;;;5.22;2.28;;;23.40;56.30;;;;;;5072289;28;20036;-49
2021/08/10 08:53:49;;;;;;;5.18;1.50;;;23.40;56.20;;;;;;5071688;28;20032;-47
2021/08/10 08:56:18;;;;;;;2.83;1.80;;;23.50;56.20;;;;;;5071761;28;20024;-47
2021/08/10 08:58:44;;;;;;;5.07;1.50;;;23.50;56.20;;;;;;5071853;28;20054;-48
2021/08/10 09:01:12;;;;;;;2.03;1.45;;;23.50;56.10;;;;;;5072620;28;20049;-57
2021/08/10 09:03:37;;;;;;;3.67;1.35;;;23.50;55.90;;;;;;5072095;28;20050;-48
2021/08/10 09:06:03;;;;;;;2.33;1.60;;;23.50;55.90;;;;;;5071043;28;20020;-47
2021/08/10 09:08:34;;;;;;;3.15;1.50;;;23.50;56.50;;;;;;5072066;28;20028;-49
2021/08/10 09:11:05;;;;;;;2.22;1.67;;;23.50;56.00;;;;;;5052417;28;20086;-49
2021/08/10 09:13:32;;;;;;;2.55;1.50;;;23.50;55.80;;;;;;5062241;28;20036;-49
2021/08/10 09:16:00;;;;;;;2.95;1.52;;;23.60;56.00;;;;;;5072295;28;20021;-48
2021/08/10 09:18:25;;;;;;;6.55;1.50;;;23.60;55.90;;;;;;5071390;28;20016;-48
2021/08/10 09:21:09;;;;;;;3.60;1.42;;;23.60;55.80;;;;;;5072061;28;20070;-47
2021/08/10 09:23:36;;;;;;;2.85;1.40;;;23.60;55.90;;;;;;5071206;28;20032;-47
2021/08/10 09:26:02;;;;;;;4.03;1.60;;;23.60;55.90;;;;;;5071815;28;20039;-48
2021/08/10 09:28:34;;;;;;;2.22;1.42;;;23.50;55.80;;;;;;5071176;28;20028;-48
2021/08/10 09:31:28;;;;;;;5.78;1.65;;;23.50;55.70;;;;;;5072289;28;20025;-48
2021/08/10 09:33:56;;;;;;;2.75;1.80;;;23.50;55.60;;;;;;5071937;28;20485;-48
2021/08/10 09:36:23;;;;;;;1.95;1.08;;;23.50;55.40;;;;;;5071905;28;20028;-57
2021/08/10 09:38:49;;;;;;;4.07;1.38;;;23.60;55.40;;;;;;5072285;28;20074;-50
2021/08/10 09:41:15;;;;;;;4.28;1.67;;;23.50;55.30;;;;;;5072259;28;20035;-50
2021/08/10 09:43:41;;;;;;;2.78;1.52;;;23.60;55.20;;;;;;5071526;28;20464;-49
2021/08/10 09:46:13;;;;;;;2.60;1.30;;;23.60;55.20;;;;;;5072090;28;20028;-47
2021/08/10 09:48:42;;;;;;;4.85;1.25;;;23.60;55.10;;;;;;5071570;28;20021;-47
2021/08/10 09:51:21;;;;;;;1.77;1.20;;;23.50;54.90;;;;;;5071918;28;20060;-48
2021/08/10 09:53:58;;;;;;;2.90;1.27;;;23.60;54.90;;;;;;5071632;28;20057;-48
2021/08/10 09:56:51;;;;;;;3.60;1.33;;;23.60;54.90;;;;;;5071059;28;20469;-54
2021/08/10 09:59:21;;;;;;;3.50;1.33;;;23.50;54.70;;;;;;5071685;28;20440;-47
2021/08/10 10:01:59;;;;;;;4.90;1.40;;;23.50;54.60;;;;;;5071314;28;20082;-50
2021/08/10 10:04:30;;;;;;;3.65;2.33;;;23.50;54.60;;;;;;5071514;28;20029;-50
2021/08/10 10:06:58;;;;;;;3.00;1.20;;;23.50;55.20;;;;;;5071904;28;20428;-48
2021/08/10 10:09:26;;;;;;;2.08;1.30;;;23.60;54.70;;;;;;5065062;28;20270;-57
2021/08/10 10:11:55;;;;;;;1.92;1.30;;;23.60;54.70;;;;;;5051179;28;20025;-52
2021/08/10 10:14:23;;;;;;;3.85;1.30;;;23.60;54.70;;;;;;5069653;28;20474;-55
2021/08/10 10:16:51;;;;;;;2.47;1.30;;;23.60;54.60;;;;;;5070715;28;20119;-56
2021/08/10 10:19:20;;;;;;;3.35;1.40;;;23.70;54.80;;;;;;5071519;28;20021;-56
2021/08/10 10:21:48;;;;;;;3.30;1.67;;;23.70;54.70;;;;;;5070701;28;20017;-56
2021/08/10 10:24:15;;;;;;;3.60;1.50;;;23.70;55.10;;;;;;5071467;28;20111;-56
2021/08/10 10:26:44;;;;;;;2.08;1.20;;;23.70;55.00;;;;;;5070588;28;20039;-56
2021/08/10 10:29:12;;;;;;;1.95;1.17;;;23.70;55.00;;;;;;5071221;28;20450;-55
2021/08/10 10:31:39;;;;;;;4.43;1.40;;;23.70;54.80;;;;;;5072978;28;20458;-55
2021/08/10 10:34:05;;;;;;;2.13;1.25;;;23.70;54.50;;;;;;5075109;28;20039;-54
2021/08/10 10:36:32;;;;;;;2.35;1.17;;;23.70;54.50;;;;;;5073944;28;20024;-55
2021/08/10 10:39:00;;;;;;;2.33;1.15;;;23.70;54.50;;;;;;5074918;28;20032;-55
2021/08/10 10:41:31;;;;;;;3.45;1.40;;;23.70;54.40;;;;;;5074957;28;20047;-62
2021/08/10 10:43:56;;;;;;;1.52;1.08;;;23.70;54.30;;;;;;5074785;28;20033;-56
2021/08/10 10:46:23;;;;;;;1.58;1.08;;;23.70;54.10;;;;;;5074721;28;20040;-57
2021/08/10 10:48:49;;;;;;;2.05;1.20;;;23.70;54.20;;;;;;5073994;28;20025;-54
2021/08/10 10:51:26;;;;;;;1.90;1.00;;;23.70;54.30;;;;;;5074626;28;20024;-53
2021/08/10 10:53:52;;;;;;;2.80;1.35;;;23.80;54.60;;;;;;5074202;28;20036;-52
2021/08/10 10:56:26;;;;;;;1.60;1.13;;;23.80;55.80;;;;;;5074575;28;20027;-55
2021/08/10 10:59:16;;;;;;;3.58;1.63;;;23.80;56.20;;;;;;5073553;28;20111;-55
2021/08/10 11:01:41;;;;;;;1.60;1.10;;;23.80;56.00;;;;;;5073678;28;20507;-54
2021/08/10 11:04:09;;;;;;;2.33;1.27;;;23.80;56.40;;;;;;5074519;28;20112;-54
2021/08/10 11:06:49;;;;;;;6.18;1.60;;;23.80;56.20;;;;;;5073665;28;20380;-55
2021/08/10 11:09:36;;;;;;;2.40;1.27;;;23.80;55.60;;;;;;5069513;28;20363;-53
2021/08/10 11:12:03;;;;;;;4.90;1.38;;;23.80;55.70;;;;;;5054270;28;20470;-55
2021/08/10 11:14:37;;;;;;;1.95;1.17;;;23.80;55.60;;;;;;5072875;28;20547;-58
2021/08/10 11:17:12;;;;;;;1.40;0.90;;;23.80;55.60;;;;;;5074453;28;20063;-54
2021/08/10 11:19:42;;;;;;;3.58;1.45;;;23.80;55.50;;;;;;5073500;28;20436;-53
2021/08/10 11:22:17;;;;;;;2.17;1.30;;;23.80;55.90;;;;;;5074135;28;20052;-54
2021/08/10 11:24:45;;;;;;;5.07;1.20;;;23.70;55.20;;;;;;5073350;28;20029;-54
2021/08/10 11:27:34;;;;;;;2.20;1.50;;;23.80;55.20;;;;;;5074046;28;20028;-51
2021/08/10 11:30:04;;;;;;;3.13;1.35;;;23.80;55.10;;;;;;5074104;28;20021;-52
2021/08/10 11:32:41;;;;;;;2.15;1.30;;;23.80;55.10;;;;;;5060053;28;20076;-59
2021/08/10 11:35:34;;;;;;;4.03;1.20;;;23.80;55.40;;;;;;5054042;28;20386;-52
2021/08/10 11:38:09;;;;;;;2.83;1.42;;;23.80;55.50;;;;;;5053591;28;20163;-54
2021/08/10 11:40:58;;;;;;;3.13;1.20;;;23.80;55.40;;;;;;5053113;28;20024;-51
2021/08/10 11:43:37;;;;;;;4.28;1.38;;;23.80;55.40;;;;;;5063331;28;20032;-54
2021/08/10 11:46:05;;;;;;;2.97;1.20;;;23.80;55.60;;;;;;5073632;28;20025;-52
2021/08/10 11:48:50;;;;;;;2.25;1.17;;;23.80;55.50;;;;;;5073175;28;20067;-59
2021/08/10 11:51:35;;;;;;;2.50;1.40;;;23.80;55.40;;;;;;5073748;28;20027;-53
2021/08/10 11:54:20;;;;;;;2.88;1.30;;;23.80;55.50;;;;;;5056810;28;20033;-50
2021/08/10 11:56:48;;;;;;;4.53;1.27;;;23.80;55.40;;;;;;5052746;28;20040;-51
2021/08/10 11:59:24;;;;;;;2.20;1.30;;;23.80;55.30;;;;;;5053038;28;20465;-53
2021/08/10 12:01:50;;;;;;;1.65;0.93;;;23.80;55.40;;;;;;5052582;28;20098;-50
2021/08/10 12:04:21;;;;;;;3.40;1.27;;;23.80;55.30;;;;;;5053433;28;20429;-52
2021/08/10 12:06:52;;;;;;;2.92;1.17;;;23.80;55.30;;;;;;5051755;28;20402;-52
2021/08/10 12:09:25;;;;;;;3.08;1.02;;;23.80;55.30;;;;;;5053330;28;20410;-50
2021/08/10 12:11:54;;;;;;;1.83;1.20;;;23.80;55.20;;;;;;5052353;28;20021;-52
2021/08/10 12:14:22;;;;;;;1.92;1.23;;;23.80;55.20;;;;;;5071215;28;20072;-50
2021/08/10 12:17:05;;;;;;;2.20;1.25;;;23.80;55.20;;;;;;5072033;28;20025;-54
2021/08/10 12:19:38;;;;;;;1.85;1.23;;;23.90;55.30;;;;;;5072653;28;20032;-56
2021/08/10 12:22:08;;;;;;;2.40;1.27;;;23.90;55.30;;;;;;5072629;28;20466;-49
2021/08/10 12:24:37;;;;;;;1.83;1.10;;;23.80;55.20;;;;;;5072459;28;20039;-60
2021/08/10 12:27:03;;;;;;;2.92;1.00;;;23.90;55.30;;;;;;5072472;28;20466;-50
2021/08/10 12:29:37;;;;;;;2.53;1.33;;;23.80;55.30;;;;;;5072650;28;20032;-50
2021/08/10 12:32:05;;;;;;;3.22;1.20;;;23.90;55.40;;;;;;5072921;28;20029;-50
2021/08/10 12:34:36;;;;;;;1.65;1.13;;;23.80;55.30;;;;;;5071194;28;20509;-59
2021/08/10 12:37:03;;;;;;;1.92;1.02;;;23.80;55.30;;;;;;5072398;28;20039;-52
2021/08/10 12:39:29;;;;;;;2.13;1.10;;;23.90;55.40;;;;;;5072838;28;20044;-51
2021/08/10 12:42:00;;;;;;;1.98;1.23;;;23.90;55.40;;;;;;5071568;28;20036;-49
2021/08/10 12:44:27;;;;;;;1.98;1.20;;;23.80;55.40;;;;;;5072315;28;20385;-53
2021/08/10 12:46:58;;;;;;;1.92;1.10;;;23.80;55.50;;;;;;5071601;28;20043;-52
2021/08/10 12:49:44;;;;;;;1.25;1.08;;;23.90;55.60;;;;;;5072428;28;20024;-51
2021/08/10 12:52:11;;;;;;;1.45;0.90;;;23.90;55.50;;;;;;5072177;28;20021;-51
2021/08/10 12:54:46;;;;;;;3.03;1.20;;;23.90;55.50;;;;;;5070107;28;20485;-51
2021/08/10 12:57:20;;;;;;;2.15;0.93;;;23.90;55.50;;;;;;5072326;28;20106;-52